WJA999 EGLL-EGPH
Flight info
| Callsign | WJA999 |
|---|---|
| Flight time | 0h 53m |
| Altitude | 32000 |
| Route | ULTIB T420 TNT UN57 POL UN601 RIBEL DCT INPIP |
| Aircraft | B737/M-SDE2E3FGHIRWXY/LB1 |
Departure
| Time | 2026-04-22 12:05 |
|---|---|
| Airport | London Heathrow Airport (EGLL) |
Arrival
| Time | 2026-04-22 12:58 |
|---|---|
| Airport | Edinburgh Airport (EGPH) |
| Time | Latitude | Longitude | Altitude | Speed | Heading |
|---|---|---|---|---|---|
| 2026-04-22 11:39 | 51.46828 | -0.44981 | 86 ft | 0 kts | 360° |
| 2026-04-22 11:53 | 51.46814 | -0.44981 | 90 ft | 4 kts | 360° |
| 2026-04-22 11:53 | 51.46787 | -0.44981 | 88 ft | 4 kts | 359° |
| 2026-04-22 11:54 | 51.46769 | -0.44979 | 89 ft | 4 kts | 341° |
| 2026-04-22 11:54 | 51.46752 | -0.44959 | 87 ft | 4 kts | 279° |
| 2026-04-22 11:54 | 51.46751 | -0.44938 | 87 ft | 0 kts | 270° |
| 2026-04-22 11:57 | 51.46751 | -0.44939 | 87 ft | 1 kts | 270° |
| 2026-04-22 11:57 | 51.46751 | -0.44978 | 87 ft | 6 kts | 269° |
| 2026-04-22 11:57 | 51.46736 | -0.45055 | 87 ft | 9 kts | 224° |
| 2026-04-22 11:57 | 51.46673 | -0.45103 | 88 ft | 12 kts | 233° |
| 2026-04-22 11:58 | 51.46663 | -0.45246 | 86 ft | 15 kts | 270° |
| 2026-04-22 11:58 | 51.46662 | -0.45434 | 86 ft | 19 kts | 270° |
| 2026-04-22 11:58 | 51.46662 | -0.45661 | 86 ft | 22 kts | 268° |
| 2026-04-22 11:58 | 51.46661 | -0.45927 | 86 ft | 26 kts | 268° |
| 2026-04-22 11:59 | 51.46659 | -0.46230 | 86 ft | 29 kts | 268° |
| 2026-04-22 11:59 | 51.46658 | -0.46553 | 90 ft | 24 kts | 269° |
| 2026-04-22 11:59 | 51.46656 | -0.46817 | 86 ft | 25 kts | 269° |
| 2026-04-22 11:59 | 51.46656 | -0.47119 | 86 ft | 29 kts | 269° |
| 2026-04-22 12:00 | 51.46655 | -0.47457 | 86 ft | 32 kts | 269° |
| 2026-04-22 12:00 | 51.46654 | -0.47828 | 86 ft | 34 kts | 270° |
| 2026-04-22 12:00 | 51.46653 | -0.48162 | 86 ft | 26 kts | 270° |
| 2026-04-22 12:00 | 51.46653 | -0.48353 | 86 ft | 0 kts | 270° |
| 2026-04-22 12:01 | 51.46653 | -0.48382 | 86 ft | 12 kts | 269° |
| 2026-04-22 12:01 | 51.46653 | -0.48422 | 86 ft | 4 kts | 268° |
| 2026-04-22 12:01 | 51.46593 | -0.48472 | 88 ft | 0 kts | 179° |
| 2026-04-22 12:03 | 51.46518 | -0.48468 | 88 ft | 15 kts | 172° |
| 2026-04-22 12:03 | 51.46478 | -0.48364 | 88 ft | 0 kts | 90° |
| 2026-04-22 12:03 | 51.46478 | -0.48335 | 88 ft | 13 kts | 90° |
| 2026-04-22 12:04 | 51.46476 | -0.47800 | 87 ft | 81 kts | 90° |
| 2026-04-22 12:04 | 51.46480 | -0.46594 | 88 ft | 131 kts | 90° |
| 2026-04-22 12:04 | 51.46491 | -0.44954 | 223 ft | 159 kts | 90° |
| 2026-04-22 12:04 | 51.46528 | -0.43086 | 499 ft | 183 kts | 87° |
| 2026-04-22 12:05 | 51.46594 | -0.40949 | 834 ft | 195 kts | 81° |
| 2026-04-22 12:05 | 51.47284 | -0.39017 | 1114 ft | 219 kts | 50° |
| 2026-04-22 12:05 | 51.48328 | -0.37098 | 1495 ft | 233 kts | 55° |
| 2026-04-22 12:05 | 51.49334 | -0.35041 | 2441 ft | 231 kts | 54° |
| 2026-04-22 12:06 | 51.50367 | -0.33022 | 3372 ft | 237 kts | 54° |
| 2026-04-22 12:06 | 51.51419 | -0.30972 | 3842 ft | 234 kts | 53° |
| 2026-04-22 12:06 | 51.52445 | -0.28937 | 3989 ft | 238 kts | 62° |
| 2026-04-22 12:06 | 51.53076 | -0.26475 | 4007 ft | 241 kts | 73° |
| 2026-04-22 12:07 | 51.53609 | -0.23935 | 3994 ft | 239 kts | 73° |
| 2026-04-22 12:07 | 51.54135 | -0.21425 | 3998 ft | 235 kts | 72° |
| 2026-04-22 12:07 | 51.55050 | -0.19257 | 4000 ft | 242 kts | 39° |
| 2026-04-22 12:07 | 51.56637 | -0.18247 | 4043 ft | 254 kts | 9° |
| 2026-04-22 12:08 | 51.58406 | -0.19013 | 4550 ft | 283 kts | 329° |
| 2026-04-22 12:08 | 51.59905 | -0.21079 | 5484 ft | 290 kts | 322° |
| 2026-04-22 12:08 | 51.61500 | -0.23094 | 6440 ft | 293 kts | 328° |
| 2026-04-22 12:08 | 51.63190 | -0.24972 | 7382 ft | 298 kts | 329° |
| 2026-04-22 12:09 | 51.64933 | -0.26782 | 8402 ft | 299 kts | 330° |
| 2026-04-22 12:09 | 51.66721 | -0.28567 | 9440 ft | 305 kts | 331° |
| 2026-04-22 12:09 | 51.68557 | -0.30346 | 10495 ft | 308 kts | 331° |
| 2026-04-22 12:09 | 51.70426 | -0.32135 | 11424 ft | 314 kts | 331° |
| 2026-04-22 12:10 | 51.72317 | -0.33945 | 12450 ft | 317 kts | 331° |
| 2026-04-22 12:10 | 51.74223 | -0.35769 | 13406 ft | 324 kts | 331° |
| 2026-04-22 12:10 | 51.76228 | -0.37689 | 14010 ft | 343 kts | 331° |
| 2026-04-22 12:10 | 51.78271 | -0.39652 | 14739 ft | 351 kts | 331° |
| 2026-04-22 12:11 | 51.80380 | -0.41680 | 15728 ft | 353 kts | 331° |
| 2026-04-22 12:11 | 51.82516 | -0.43752 | 16557 ft | 362 kts | 331° |
| 2026-04-22 12:11 | 51.84684 | -0.45869 | 17601 ft | 363 kts | 329° |
| 2026-04-22 12:11 | 51.86842 | -0.47982 | 18711 ft | 363 kts | 329° |
| 2026-04-22 12:12 | 51.88983 | -0.50080 | 19820 ft | 357 kts | 330° |
| 2026-04-22 12:12 | 51.91093 | -0.52149 | 20910 ft | 353 kts | 330° |
| 2026-04-22 12:12 | 51.93187 | -0.54208 | 21971 ft | 351 kts | 330° |
| 2026-04-22 12:12 | 51.95266 | -0.56242 | 23096 ft | 347 kts | 330° |
| 2026-04-22 12:13 | 51.97342 | -0.58270 | 23917 ft | 352 kts | 329° |
| 2026-04-22 12:13 | 51.99458 | -0.60339 | 24542 ft | 358 kts | 329° |
| 2026-04-22 12:13 | 52.01615 | -0.62443 | 25150 ft | 364 kts | 329° |
| 2026-04-22 12:13 | 52.03785 | -0.64558 | 25921 ft | 364 kts | 329° |
| 2026-04-22 12:14 | 52.05959 | -0.66682 | 26720 ft | 364 kts | 329° |
| 2026-04-22 12:14 | 52.08124 | -0.68804 | 27577 ft | 362 kts | 328° |
| 2026-04-22 12:14 | 52.10235 | -0.70875 | 28518 ft | 357 kts | 328° |
| 2026-04-22 12:14 | 52.12379 | -0.72987 | 29511 ft | 353 kts | 328° |
| 2026-04-22 12:15 | 52.14441 | -0.75021 | 30397 ft | 350 kts | 328° |
| 2026-04-22 12:15 | 52.16521 | -0.77077 | 31079 ft | 349 kts | 328° |
| 2026-04-22 12:15 | 52.18601 | -0.79139 | 31681 ft | 350 kts | 327° |
| 2026-04-22 12:15 | 52.20684 | -0.81205 | 32257 ft | 351 kts | 327° |
| 2026-04-22 12:16 | 52.22806 | -0.83314 | 32315 ft | 365 kts | 327° |
| 2026-04-22 12:16 | 52.25009 | -0.85505 | 32348 ft | 377 kts | 328° |
| 2026-04-22 12:16 | 52.27284 | -0.87762 | 32359 ft | 388 kts | 328° |
| 2026-04-22 12:16 | 52.29630 | -0.90088 | 32363 ft | 399 kts | 328° |
| 2026-04-22 12:17 | 52.34503 | -0.94925 | 32388 ft | 418 kts | 328° |
| 2026-04-22 12:17 | 52.39571 | -0.99971 | 32376 ft | 433 kts | 327° |
| 2026-04-22 12:18 | 52.44724 | -1.05116 | 32317 ft | 437 kts | 327° |
| 2026-04-22 12:18 | 52.49901 | -1.10304 | 32302 ft | 436 kts | 327° |
| 2026-04-22 12:19 | 52.55067 | -1.15546 | 32279 ft | 436 kts | 327° |
| 2026-04-22 12:19 | 52.60230 | -1.20783 | 32248 ft | 436 kts | 327° |
| 2026-04-22 12:20 | 52.65392 | -1.26012 | 32239 ft | 435 kts | 327° |
| 2026-04-22 12:20 | 52.70546 | -1.31251 | 32242 ft | 435 kts | 327° |
| 2026-04-22 12:21 | 52.75685 | -1.36480 | 32375 ft | 435 kts | 327° |
| 2026-04-22 12:21 | 52.80858 | -1.41756 | 32376 ft | 435 kts | 327° |
| 2026-04-22 12:22 | 52.86014 | -1.47028 | 32373 ft | 435 kts | 327° |
| 2026-04-22 12:22 | 52.91156 | -1.52304 | 32364 ft | 435 kts | 327° |
| 2026-04-22 12:23 | 52.96299 | -1.57597 | 32387 ft | 435 kts | 327° |
| 2026-04-22 12:23 | 53.01417 | -1.62877 | 32402 ft | 436 kts | 326° |
| 2026-04-22 12:24 | 53.06676 | -1.67907 | 32392 ft | 438 kts | 335° |
| 2026-04-22 12:24 | 53.12406 | -1.71482 | 32399 ft | 439 kts | 338° |
| 2026-04-22 12:25 | 53.18144 | -1.74933 | 32405 ft | 439 kts | 338° |
| 2026-04-22 12:25 | 53.23875 | -1.78447 | 32408 ft | 438 kts | 337° |
| 2026-04-22 12:26 | 53.29583 | -1.81997 | 32411 ft | 438 kts | 337° |
| 2026-04-22 12:26 | 53.35301 | -1.85574 | 32407 ft | 438 kts | 337° |
| 2026-04-22 12:27 | 53.40970 | -1.89130 | 32409 ft | 437 kts | 337° |
| 2026-04-22 12:27 | 53.46667 | -1.92712 | 32416 ft | 437 kts | 337° |
| 2026-04-22 12:28 | 53.52364 | -1.96304 | 32422 ft | 437 kts | 337° |
| 2026-04-22 12:28 | 53.58069 | -1.99913 | 32421 ft | 437 kts | 337° |
| 2026-04-22 12:29 | 53.63756 | -2.03519 | 32426 ft | 437 kts | 337° |
| 2026-04-22 12:29 | 53.69455 | -2.07144 | 32422 ft | 437 kts | 337° |
| 2026-04-22 12:30 | 53.77972 | -2.12698 | 32416 ft | 437 kts | 335° |
| 2026-04-22 12:31 | 53.83597 | -2.16627 | 32424 ft | 438 kts | 335° |
| 2026-04-22 12:31 | 53.89207 | -2.20499 | 32415 ft | 438 kts | 335° |
| 2026-04-22 12:32 | 53.94870 | -2.24372 | 32425 ft | 438 kts | 335° |
| 2026-04-22 12:32 | 54.03353 | -2.30204 | 32433 ft | 438 kts | 335° |
| 2026-04-22 12:33 | 54.09007 | -2.34103 | 32428 ft | 438 kts | 335° |
| 2026-04-22 12:33 | 54.14656 | -2.38009 | 32433 ft | 438 kts | 335° |
| 2026-04-22 12:34 | 54.20310 | -2.41931 | 32430 ft | 438 kts | 335° |
| 2026-04-22 12:34 | 54.25918 | -2.45831 | 32444 ft | 438 kts | 335° |
| 2026-04-22 12:35 | 54.31566 | -2.49774 | 32438 ft | 438 kts | 335° |
| 2026-04-22 12:35 | 54.37212 | -2.53726 | 32451 ft | 438 kts | 335° |
| 2026-04-22 12:36 | 54.42848 | -2.57683 | 32441 ft | 437 kts | 334° |
| 2026-04-22 12:36 | 54.48477 | -2.61668 | 32457 ft | 438 kts | 334° |
| 2026-04-22 12:37 | 54.54123 | -2.65643 | 32446 ft | 439 kts | 335° |
| 2026-04-22 12:37 | 54.59785 | -2.69642 | 32439 ft | 440 kts | 335° |
| 2026-04-22 12:38 | 54.62545 | -2.71599 | 32275 ft | 430 kts | 335° |
| 2026-04-22 12:38 | 54.65343 | -2.73587 | 31465 ft | 428 kts | 335° |
| 2026-04-22 12:38 | 54.68065 | -2.75527 | 30392 ft | 431 kts | 334° |
| 2026-04-22 12:38 | 54.70856 | -2.77522 | 29001 ft | 437 kts | 335° |
| 2026-04-22 12:39 | 54.73689 | -2.79548 | 27618 ft | 442 kts | 334° |
| 2026-04-22 12:39 | 54.79354 | -2.83602 | 26653 ft | 444 kts | 334° |
| 2026-04-22 12:39 | 54.82248 | -2.85680 | 26537 ft | 455 kts | 334° |
| 2026-04-22 12:40 | 54.85195 | -2.87799 | 26470 ft | 460 kts | 335° |
| 2026-04-22 12:40 | 54.88148 | -2.89922 | 26457 ft | 460 kts | 335° |
| 2026-04-22 12:40 | 54.91098 | -2.92051 | 26446 ft | 459 kts | 334° |
| 2026-04-22 12:40 | 54.94016 | -2.94164 | 26297 ft | 447 kts | 334° |
| 2026-04-22 12:41 | 54.96857 | -2.96223 | 25445 ft | 440 kts | 334° |
| 2026-04-22 12:41 | 54.99687 | -2.98283 | 24348 ft | 439 kts | 334° |
| 2026-04-22 12:41 | 55.02509 | -3.00342 | 23065 ft | 439 kts | 335° |
| 2026-04-22 12:41 | 55.04380 | -3.01707 | 22253 ft | 438 kts | 334° |
| 2026-04-22 12:42 | 55.08103 | -3.04427 | 20891 ft | 435 kts | 334° |
| 2026-04-22 12:42 | 55.10861 | -3.06445 | 20697 ft | 430 kts | 335° |
| 2026-04-22 12:42 | 55.13661 | -3.08501 | 20587 ft | 440 kts | 334° |
| 2026-04-22 12:42 | 55.16509 | -3.10593 | 20508 ft | 450 kts | 335° |
| 2026-04-22 12:43 | 55.18468 | -3.12027 | 20480 ft | 450 kts | 334° |
| 2026-04-22 12:43 | 55.21321 | -3.14115 | 20209 ft | 436 kts | 336° |
| 2026-04-22 12:43 | 55.24104 | -3.16157 | 19416 ft | 432 kts | 336° |
| 2026-04-22 12:43 | 55.26817 | -3.18154 | 18515 ft | 428 kts | 336° |
| 2026-04-22 12:44 | 55.29562 | -3.20182 | 17460 ft | 426 kts | 336° |
| 2026-04-22 12:44 | 55.32205 | -3.22493 | 16478 ft | 421 kts | 330° |
| 2026-04-22 12:44 | 55.34706 | -3.25127 | 15470 ft | 420 kts | 328° |
| 2026-04-22 12:44 | 55.37151 | -3.27874 | 14635 ft | 414 kts | 327° |
| 2026-04-22 12:45 | 55.39567 | -3.30614 | 13604 ft | 413 kts | 328° |
| 2026-04-22 12:45 | 55.41966 | -3.33313 | 12798 ft | 405 kts | 327° |
| 2026-04-22 12:45 | 55.44337 | -3.35938 | 11963 ft | 399 kts | 328° |
| 2026-04-22 12:45 | 55.46665 | -3.38485 | 11472 ft | 386 kts | 328° |
| 2026-04-22 12:46 | 55.48919 | -3.40943 | 10951 ft | 372 kts | 328° |
| 2026-04-22 12:46 | 55.51088 | -3.43298 | 10093 ft | 361 kts | 329° |
| 2026-04-22 12:46 | 55.53184 | -3.45574 | 9148 ft | 354 kts | 329° |
| 2026-04-22 12:46 | 55.55252 | -3.47815 | 8270 ft | 346 kts | 329° |
| 2026-04-22 12:47 | 55.57277 | -3.50019 | 7463 ft | 335 kts | 329° |
| 2026-04-22 12:47 | 55.59247 | -3.52174 | 6525 ft | 331 kts | 329° |
| 2026-04-22 12:47 | 55.61194 | -3.54299 | 5631 ft | 326 kts | 329° |
| 2026-04-22 12:47 | 55.63123 | -3.56404 | 4913 ft | 325 kts | 329° |
| 2026-04-22 12:48 | 55.65041 | -3.58513 | 4685 ft | 324 kts | 328° |
| 2026-04-22 12:48 | 55.66959 | -3.60622 | 4482 ft | 317 kts | 328° |
| 2026-04-22 12:48 | 55.68751 | -3.62594 | 4299 ft | 291 kts | 329° |
| 2026-04-22 12:48 | 55.70425 | -3.64434 | 4128 ft | 276 kts | 329° |
| 2026-04-22 12:49 | 55.72011 | -3.66179 | 3986 ft | 258 kts | 330° |
| 2026-04-22 12:49 | 55.73475 | -3.67776 | 3960 ft | 238 kts | 330° |
| 2026-04-22 12:49 | 55.74825 | -3.69251 | 3963 ft | 224 kts | 330° |
| 2026-04-22 12:49 | 55.76125 | -3.70679 | 3979 ft | 218 kts | 330° |
| 2026-04-22 12:50 | 55.77382 | -3.72064 | 3989 ft | 204 kts | 329° |
| 2026-04-22 12:50 | 55.78550 | -3.73354 | 3961 ft | 195 kts | 330° |
| 2026-04-22 12:50 | 55.79700 | -3.74623 | 3967 ft | 196 kts | 331° |
| 2026-04-22 12:50 | 55.80922 | -3.75628 | 3940 ft | 190 kts | 1° |
| 2026-04-22 12:51 | 55.82064 | -3.74979 | 3976 ft | 166 kts | 54° |
| 2026-04-22 12:51 | 55.82712 | -3.73293 | 3999 ft | 168 kts | 64° |
| 2026-04-22 12:51 | 55.83352 | -3.71536 | 3984 ft | 168 kts | 62° |
| 2026-04-22 12:51 | 55.83996 | -3.69812 | 3969 ft | 166 kts | 63° |
| 2026-04-22 12:52 | 55.84596 | -3.68115 | 3966 ft | 164 kts | 66° |
| 2026-04-22 12:52 | 55.85195 | -3.66344 | 3791 ft | 171 kts | 63° |
| 2026-04-22 12:52 | 55.85804 | -3.64542 | 3561 ft | 168 kts | 63° |
| 2026-04-22 12:52 | 55.86390 | -3.62801 | 3334 ft | 160 kts | 64° |
| 2026-04-22 12:53 | 55.86946 | -3.61143 | 3125 ft | 153 kts | 72° |
| 2026-04-22 12:53 | 55.87008 | -3.59375 | 2650 ft | 156 kts | 113° |
| 2026-04-22 12:53 | 55.86779 | -3.57529 | 2353 ft | 147 kts | 74° |
| 2026-04-22 12:53 | 55.87388 | -3.56155 | 2052 ft | 146 kts | 47° |
| 2026-04-22 12:54 | 55.88157 | -3.55052 | 1866 ft | 141 kts | 34° |
| 2026-04-22 12:54 | 55.89077 | -3.54475 | 1702 ft | 137 kts | 20° |
| 2026-04-22 12:54 | 55.90014 | -3.54063 | 1545 ft | 140 kts | 30° |
| 2026-04-22 12:54 | 55.90795 | -3.53056 | 1334 ft | 138 kts | 53° |
| 2026-04-22 12:55 | 55.91330 | -3.51735 | 1350 ft | 124 kts | 62° |
| 2026-04-22 12:55 | 55.91640 | -3.50283 | 1261 ft | 129 kts | 79° |
| 2026-04-22 12:55 | 55.91775 | -3.48685 | 1148 ft | 129 kts | 85° |
| 2026-04-22 12:55 | 55.91850 | -3.47171 | 1300 ft | 115 kts | 81° |
| 2026-04-22 12:56 | 55.92156 | -3.45754 | 1509 ft | 133 kts | 64° |
| 2026-04-22 12:56 | 55.92630 | -3.44437 | 1262 ft | 124 kts | 57° |
| 2026-04-22 12:56 | 55.93087 | -3.43120 | 815 ft | 118 kts | 66° |
| 2026-04-22 12:56 | 55.93449 | -3.41871 | 517 ft | 108 kts | 61° |
| 2026-04-22 12:57 | 55.93847 | -3.40722 | 396 ft | 109 kts | 60° |
| 2026-04-22 12:57 | 55.94225 | -3.39500 | 213 ft | 111 kts | 54° |
| 2026-04-22 12:57 | 55.94599 | -3.38423 | 112 ft | 92 kts | 56° |
| 2026-04-22 12:57 | 55.94860 | -3.37674 | 113 ft | 50 kts | 58° |
| 2026-04-22 12:58 | 55.94987 | -3.37296 | 111 ft | 33 kts | 60° |
| 2026-04-22 12:58 | 55.95126 | -3.36862 | 112 ft | 49 kts | 59° |
| 2026-04-22 12:58 | 55.95251 | -3.36467 | 110 ft | 21 kts | 86° |
| 2026-04-22 12:58 | 55.95196 | -3.36354 | 113 ft | 0 kts | 147° |
| 2026-04-22 12:59 | 55.95166 | -3.36326 | 112 ft | 19 kts | 153° |
| 2026-04-22 13:00 | 55.95078 | -3.36455 | 113 ft | 20 kts | 240° |
| 2026-04-22 13:00 | 55.94997 | -3.36690 | 113 ft | 25 kts | 238° |
| 2026-04-22 13:00 | 55.94937 | -3.36869 | 112 ft | 4 kts | 224° |
| 2026-04-22 13:00 | 55.94909 | -3.36836 | 113 ft | 8 kts | 109° |
| 2026-04-22 13:01 | 55.94818 | -3.36794 | 113 ft | 21 kts | 197° |
| 2026-04-22 13:01 | 55.94747 | -3.36730 | 111 ft | 8 kts | 123° |
| 2026-04-22 13:01 | 55.94749 | -3.36675 | 115 ft | 2 kts | 78° |
| 2026-04-22 13:01 | 55.94753 | -3.36624 | 115 ft | 6 kts | 88° |
| 2026-04-22 13:02 | 55.94753 | -3.36609 | 112 ft | 0 kts | 89° |
| 2026-04-22 13:12 | 55.94753 | -3.36610 | 115 ft | 0 kts | 89° |
| 2026-04-22 13:37 | 55.94753 | -3.36611 | 115 ft | 0 kts | 89° |